sensor_id;sensor_type;location;lat;lon;timestamp;pressure;altitude;pressure_sealevel;temperature;humidity
57594;BME280;43423;46.510;6.686;2023-04-09T00:00:36;96765.09;;;8.24;64.75
57594;BME280;43423;46.510;6.686;2023-04-09T00:03:21;96753.06;;;8.22;64.75
57594;BME280;43423;46.510;6.686;2023-04-09T00:05:47;96759.78;;;8.30;64.78
57594;BME280;43423;46.510;6.686;2023-04-09T00:08:12;96754.44;;;8.17;64.65
57594;BME280;43423;46.510;6.686;2023-04-09T00:10:38;96760.22;;;8.19;65.20
57594;BME280;43423;46.510;6.686;2023-04-09T00:13:03;96751.22;;;8.19;65.08
57594;BME280;43423;46.510;6.686;2023-04-09T00:15:29;96747.44;;;8.16;64.86
57594;BME280;43423;46.510;6.686;2023-04-09T00:17:55;96758.22;;;8.20;64.85
57594;BME280;43423;46.510;6.686;2023-04-09T00:20:20;96760.66;;;8.18;64.94
57594;BME280;43423;46.510;6.686;2023-04-09T00:22:46;96759.13;;;8.07;65.26
57594;BME280;43423;46.510;6.686;2023-04-09T00:25:12;96757.16;;;8.08;65.50
57594;BME280;43423;46.510;6.686;2023-04-09T00:27:38;96758.50;;;8.03;65.48
57594;BME280;43423;46.510;6.686;2023-04-09T00:30:04;96752.72;;;8.01;65.77
57594;BME280;43423;46.510;6.686;2023-04-09T00:32:30;96745.72;;;7.91;66.00
57594;BME280;43423;46.510;6.686;2023-04-09T00:34:55;96752.56;;;7.87;66.14
57594;BME280;43423;46.510;6.686;2023-04-09T00:37:21;96760.03;;;7.95;65.97
57594;BME280;43423;46.510;6.686;2023-04-09T00:39:46;96760.31;;;7.88;67.06
57594;BME280;43423;46.510;6.686;2023-04-09T00:42:12;96765.19;;;7.93;66.47
57594;BME280;43423;46.510;6.686;2023-04-09T00:44:37;96755.16;;;7.90;66.55
57594;BME280;43423;46.510;6.686;2023-04-09T00:47:03;96749.63;;;7.72;67.62
57594;BME280;43423;46.510;6.686;2023-04-09T00:49:29;96752.56;;;7.87;66.73
57594;BME280;43423;46.510;6.686;2023-04-09T00:51:55;96748.88;;;7.80;66.93
57594;BME280;43423;46.510;6.686;2023-04-09T00:54:20;96743.09;;;7.78;67.30
57594;BME280;43423;46.510;6.686;2023-04-09T00:56:46;96743.84;;;7.70;67.88
57594;BME280;43423;46.510;6.686;2023-04-09T00:59:11;96741.41;;;7.72;67.69
57594;BME280;43423;46.510;6.686;2023-04-09T01:01:37;96747.81;;;7.69;68.32
57594;BME280;43423;46.510;6.686;2023-04-09T01:04:03;96746.13;;;7.71;67.80
57594;BME280;43423;46.510;6.686;2023-04-09T01:06:40;96753.00;;;7.76;67.55
57594;BME280;43423;46.510;6.686;2023-04-09T01:12:17;96743.84;;;7.70;67.39
57594;BME280;43423;46.510;6.686;2023-04-09T01:14:58;96756.59;;;7.64;68.01
57594;BME280;43423;46.510;6.686;2023-04-09T01:17:34;96749.28;;;7.61;68.03
57594;BME280;43423;46.510;6.686;2023-04-09T01:28:18;96755.47;;;7.43;68.93
57594;BME280;43423;46.510;6.686;2023-04-09T01:30:49;96748.03;;;7.43;68.69
57594;BME280;43423;46.510;6.686;2023-04-09T01:33:18;96758.63;;;7.41;68.88
57594;BME280;43423;46.510;6.686;2023-04-09T01:35:48;96748.28;;;7.36;68.83
57594;BME280;43423;46.510;6.686;2023-04-09T01:38:17;96744.13;;;7.22;69.10
57594;BME280;43423;46.510;6.686;2023-04-09T01:40:44;96744.75;;;7.26;69.38
57594;BME280;43423;46.510;6.686;2023-04-09T01:43:11;96742.72;;;7.18;69.59
57594;BME280;43423;46.510;6.686;2023-04-09T01:45:38;96745.53;;;7.27;69.34
57594;BME280;43423;46.510;6.686;2023-04-09T01:48:05;96747.59;;;7.14;69.20
57594;BME280;43423;46.510;6.686;2023-04-09T01:50:31;96738.47;;;7.17;69.65
57594;BME280;43423;46.510;6.686;2023-04-09T01:52:57;96747.44;;;7.17;69.85
57594;BME280;43423;46.510;6.686;2023-04-09T01:55:23;96743.91;;;7.08;70.55
57594;BME280;43423;46.510;6.686;2023-04-09T01:57:49;96747.09;;;7.06;70.81
57594;BME280;43423;46.510;6.686;2023-04-09T02:00:15;96745.78;;;7.20;69.86
57594;BME280;43423;46.510;6.686;2023-04-09T02:02:56;96753.41;;;7.25;69.82
57594;BME280;43423;46.510;6.686;2023-04-09T02:05:24;96750.06;;;7.21;70.07
57594;BME280;43423;46.510;6.686;2023-04-09T02:07:55;96747.88;;;7.16;70.31
57594;BME280;43423;46.510;6.686;2023-04-09T02:10:25;96751.38;;;7.16;70.05
57594;BME280;43423;46.510;6.686;2023-04-09T02:12:52;96748.34;;;7.14;70.55
57594;BME280;43423;46.510;6.686;2023-04-09T02:15:20;96754.25;;;7.13;70.30
57594;BME280;43423;46.510;6.686;2023-04-09T02:17:46;96758.63;;;7.10;70.44
57594;BME280;43423;46.510;6.686;2023-04-09T02:20:16;96757.13;;;7.09;70.20
57594;BME280;43423;46.510;6.686;2023-04-09T02:22:43;96756.44;;;6.96;70.83
57594;BME280;43423;46.510;6.686;2023-04-09T02:25:08;96759.50;;;6.98;70.88
57594;BME280;43423;46.510;6.686;2023-04-09T02:27:34;96763.59;;;7.03;70.80
57594;BME280;43423;46.510;6.686;2023-04-09T02:29:59;96760.56;;;7.00;70.66
57594;BME280;43423;46.510;6.686;2023-04-09T02:32:25;96765.91;;;7.04;70.62
57594;BME280;43423;46.510;6.686;2023-04-09T02:34:50;96763.06;;;6.86;71.44
57594;BME280;43423;46.510;6.686;2023-04-09T02:37:16;96768.97;;;6.84;72.05
57594;BME280;43423;46.510;6.686;2023-04-09T02:39:42;96773.38;;;6.82;71.89
57594;BME280;43423;46.510;6.686;2023-04-09T02:42:08;96763.97;;;6.83;71.57
57594;BME280;43423;46.510;6.686;2023-04-09T02:44:34;96769.03;;;6.93;70.52
57594;BME280;43423;46.510;6.686;2023-04-09T02:46:59;96764.66;;;6.96;70.62
57594;BME280;43423;46.510;6.686;2023-04-09T02:49:25;96760.50;;;6.91;70.90
57594;BME280;43423;46.510;6.686;2023-04-09T02:51:50;96763.91;;;6.95;70.61
57594;BME280;43423;46.510;6.686;2023-04-09T02:54:16;96762.63;;;6.87;70.95
57594;BME280;43423;46.510;6.686;2023-04-09T02:56:41;96769.28;;;6.86;70.59
57594;BME280;43423;46.510;6.686;2023-04-09T02:59:07;96768.53;;;6.86;70.73
57594;BME280;43423;46.510;6.686;2023-04-09T03:01:32;96765.47;;;6.84;71.06
57594;BME280;43423;46.510;6.686;2023-04-09T03:03:59;96768.53;;;6.86;70.52
57594;BME280;43423;46.510;6.686;2023-04-09T03:06:25;96758.59;;;6.79;70.81
57594;BME280;43423;46.510;6.686;2023-04-09T03:08:50;96763.38;;;6.66;71.43
57594;BME280;43423;46.510;6.686;2023-04-09T03:11:16;96763.09;;;6.64;71.63
57594;BME280;43423;46.510;6.686;2023-04-09T03:13:42;96761.72;;;6.68;71.19
57594;BME280;43423;46.510;6.686;2023-04-09T03:16:07;96757.28;;;6.62;71.23
57594;BME280;43423;46.510;6.686;2023-04-09T03:18:35;96763.88;;;6.52;71.87
57594;BME280;43423;46.510;6.686;2023-04-09T03:21:05;96759.38;;;6.58;71.51
57594;BME280;43423;46.510;6.686;2023-04-09T03:23:31;96753.09;;;6.48;71.96
57594;BME280;43423;46.510;6.686;2023-04-09T03:26:05;96753.72;;;6.52;71.64
57594;BME280;43423;46.510;6.686;2023-04-09T03:28:31;96754.16;;;6.51;71.64
57594;BME280;43423;46.510;6.686;2023-04-09T03:30:57;96753.97;;;6.45;71.54
57594;BME280;43423;46.510;6.686;2023-04-09T03:33:23;96757.16;;;6.43;71.76
57594;BME280;43423;46.510;6.686;2023-04-09T03:35:49;96760.19;;;6.46;71.65
57594;BME280;43423;46.510;6.686;2023-04-09T03:38:14;96752.59;;;6.40;71.49
57594;BME280;43423;46.510;6.686;2023-04-09T03:40:40;96752.59;;;6.40;71.44
57594;BME280;43423;46.510;6.686;2023-04-09T03:43:06;96759.13;;;6.43;71.86
57594;BME280;43423;46.510;6.686;2023-04-09T03:45:32;96748.63;;;6.41;71.08
57594;BME280;43423;46.510;6.686;2023-04-09T03:47:57;96749.41;;;6.42;71.14
57594;BME280;43423;46.510;6.686;2023-04-09T03:50:23;96759.75;;;6.47;71.43
57594;BME280;43423;46.510;6.686;2023-04-09T03:52:48;96758.56;;;6.48;71.19
57594;BME280;43423;46.510;6.686;2023-04-09T03:55:14;96755.19;;;6.44;71.63
57594;BME280;43423;46.510;6.686;2023-04-09T03:57:40;96758.66;;;6.44;71.91
57594;BME280;43423;46.510;6.686;2023-04-09T04:00:06;96747.38;;;6.33;71.92
57594;BME280;43423;46.510;6.686;2023-04-09T04:02:31;96754.34;;;6.34;71.99
57594;BME280;43423;46.510;6.686;2023-04-09T04:04:58;96748.69;;;6.29;72.33
57594;BME280;43423;46.510;6.686;2023-04-09T04:07:24;96758.75;;;6.19;72.64
57594;BME280;43423;46.510;6.686;2023-04-09T04:09:50;96757.47;;;6.11;72.89
57594;BME280;43423;46.510;6.686;2023-04-09T04:12:15;96745.16;;;6.06;73.04
57594;BME280;43423;46.510;6.686;2023-04-09T04:14:41;96749.84;;;6.06;72.92
57594;BME280;43423;46.510;6.686;2023-04-09T04:17:06;96742.22;;;6.01;73.04
57594;BME280;43423;46.510;6.686;2023-04-09T04:19:32;96746.59;;;5.98;73.18
57594;BME280;43423;46.510;6.686;2023-04-09T04:21:57;96744.00;;;5.95;73.17
57594;BME280;43423;46.510;6.686;2023-04-09T04:24:23;96756.63;;;5.88;73.77
57594;BME280;43423;46.510;6.686;2023-04-09T04:26:48;96750.31;;;5.92;73.43
57594;BME280;43423;46.510;6.686;2023-04-09T04:29:14;96748.97;;;5.83;74.18
57594;BME280;43423;46.510;6.686;2023-04-09T04:31:40;96754.34;;;5.74;74.65
57594;BME280;43423;46.510;6.686;2023-04-09T04:34:05;96750.50;;;5.84;74.26
57594;BME280;43423;46.510;6.686;2023-04-09T04:36:31;96747.91;;;5.81;74.41
57594;BME280;43423;46.510;6.686;2023-04-09T04:38:56;96759.03;;;5.86;73.99
57594;BME280;43423;46.510;6.686;2023-04-09T04:41:22;96764.59;;;5.83;73.78
57594;BME280;43423;46.510;6.686;2023-04-09T04:43:47;96760.66;;;5.84;74.29
57594;BME280;43423;46.510;6.686;2023-04-09T04:46:13;96770.72;;;5.87;74.29
57594;BME280;43423;46.510;6.686;2023-04-09T04:48:38;96770.81;;;5.83;73.96
57594;BME280;43423;46.510;6.686;2023-04-09T04:51:04;96769.59;;;5.84;74.22
57594;BME280;43423;46.510;6.686;2023-04-09T04:53:30;96759.13;;;5.83;74.43
57594;BME280;43423;46.510;6.686;2023-04-09T04:55:55;96772.03;;;5.82;74.27
57594;BME280;43423;46.510;6.686;2023-04-09T04:58:21;96775.97;;;5.81;74.15
57594;BME280;43423;46.510;6.686;2023-04-09T05:00:46;96783.25;;;5.84;74.51
57594;BME280;43423;46.510;6.686;2023-04-09T05:03:12;96785.56;;;5.86;74.11
57594;BME280;43423;46.510;6.686;2023-04-09T05:05:37;96784.59;;;5.93;73.90
57594;BME280;43423;46.510;6.686;2023-04-09T05:08:03;96782.50;;;5.97;73.50
57594;BME280;43423;46.510;6.686;2023-04-09T05:10:29;96783.81;;;5.79;74.45
57594;BME280;43423;46.510;6.686;2023-04-09T05:12:55;96783.50;;;5.77;74.03
57594;BME280;43423;46.510;6.686;2023-04-09T05:15:20;96792.00;;;5.79;73.96
57594;BME280;43423;46.510;6.686;2023-04-09T05:17:46;96797.78;;;5.69;73.82
57594;BME280;43423;46.510;6.686;2023-04-09T05:20:12;96793.53;;;5.68;74.22
57594;BME280;43423;46.510;6.686;2023-04-09T05:22:37;96794.94;;;5.59;74.39
57594;BME280;43423;46.510;6.686;2023-04-09T05:25:03;96789.72;;;5.52;74.94
57594;BME280;43423;46.510;6.686;2023-04-09T05:27:29;96787.66;;;5.69;74.01
57594;BME280;43423;46.510;6.686;2023-04-09T05:29:54;96794.97;;;5.85;73.36
57594;BME280;43423;46.510;6.686;2023-04-09T05:32:20;96794.63;;;5.83;72.76
57594;BME280;43423;46.510;6.686;2023-04-09T05:34:45;96801.06;;;5.76;73.55
57594;BME280;43423;46.510;6.686;2023-04-09T05:37:12;96805.75;;;5.88;73.60
57594;BME280;43423;46.510;6.686;2023-04-09T05:39:38;96802.94;;;5.79;73.28
57594;BME280;43423;46.510;6.686;2023-04-09T05:42:04;96813.50;;;5.90;73.95
57594;BME280;43423;46.510;6.686;2023-04-09T05:44:29;96806.72;;;5.82;73.66
57594;BME280;43423;46.510;6.686;2023-04-09T05:46:55;96814.63;;;5.93;72.71
57594;BME280;43423;46.510;6.686;2023-04-09T05:49:20;96815.78;;;6.17;72.31
57594;BME280;43423;46.510;6.686;2023-04-09T05:51:46;96817.38;;;6.40;70.93
57594;BME280;43423;46.510;6.686;2023-04-09T05:54:12;96815.25;;;6.57;70.78
57594;BME280;43423;46.510;6.686;2023-04-09T05:56:37;96814.06;;;6.80;69.58
57594;BME280;43423;46.510;6.686;2023-04-09T05:59:03;96824.41;;;7.07;69.91
57594;BME280;43423;46.510;6.686;2023-04-09T06:01:28;96827.28;;;7.34;68.85
57594;BME280;43423;46.510;6.686;2023-04-09T06:03:54;96835.00;;;7.57;67.68
57594;BME280;43423;46.510;6.686;2023-04-09T06:06:20;96834.84;;;7.83;66.98
57594;BME280;43423;46.510;6.686;2023-04-09T06:08:45;96833.09;;;8.07;66.60
57594;BME280;43423;46.510;6.686;2023-04-09T06:11:12;96828.56;;;8.23;65.37
57594;BME280;43423;46.510;6.686;2023-04-09T06:13:38;96843.09;;;8.51;64.11
57594;BME280;43423;46.510;6.686;2023-04-09T06:16:05;96841.44;;;8.72;63.53
57594;BME280;43423;46.510;6.686;2023-04-09T06:18:31;96841.13;;;8.88;62.78
57594;BME280;43423;46.510;6.686;2023-04-09T06:21:04;96846.78;;;8.93;62.84
57594;BME280;43423;46.510;6.686;2023-04-09T06:23:31;96844.16;;;9.08;62.25
57594;BME280;43423;46.510;6.686;2023-04-09T06:25:57;96856.16;;;9.29;61.79
57594;BME280;43423;46.510;6.686;2023-04-09T06:28:22;96848.09;;;9.35;60.78
57594;BME280;43423;46.510;6.686;2023-04-09T06:30:48;96854.22;;;9.81;59.55
57594;BME280;43423;46.510;6.686;2023-04-09T06:33:13;96847.28;;;9.95;59.99
57594;BME280;43423;46.510;6.686;2023-04-09T06:35:39;96845.13;;;10.32;58.64
57594;BME280;43423;46.510;6.686;2023-04-09T06:38:04;96852.91;;;10.81;57.72
57594;BME280;43423;46.510;6.686;2023-04-09T06:40:31;96864.63;;;11.06;56.49
57594;BME280;43423;46.510;6.686;2023-04-09T06:42:56;96860.75;;;11.12;55.88
57594;BME280;43423;46.510;6.686;2023-04-09T06:45:22;96861.94;;;11.50;55.65
57594;BME280;43423;46.510;6.686;2023-04-09T06:47:48;96864.31;;;11.87;54.87
57594;BME280;43423;46.510;6.686;2023-04-09T06:50:13;96870.09;;;12.04;53.39
57594;BME280;43423;46.510;6.686;2023-04-09T06:52:39;96862.84;;;12.06;53.90
57594;BME280;43423;46.510;6.686;2023-04-09T06:55:05;96854.84;;;12.08;53.64
57594;BME280;43423;46.510;6.686;2023-04-09T06:57:30;96856.69;;;12.32;52.98
57594;BME280;43423;46.510;6.686;2023-04-09T06:59:56;96855.22;;;12.71;53.13
57594;BME280;43423;46.510;6.686;2023-04-09T07:02:21;96853.38;;;12.83;51.79
57594;BME280;43423;46.510;6.686;2023-04-09T07:04:47;96860.31;;;12.99;51.64
57594;BME280;43423;46.510;6.686;2023-04-09T07:07:12;96867.97;;;13.30;50.96
57594;BME280;43423;46.510;6.686;2023-04-09T07:09:38;96860.16;;;13.08;51.63
57594;BME280;43423;46.510;6.686;2023-04-09T07:12:03;96864.00;;;13.62;51.19
57594;BME280;43423;46.510;6.686;2023-04-09T07:14:29;96865.63;;;13.75;49.81
57594;BME280;43423;46.510;6.686;2023-04-09T07:16:55;96867.22;;;14.18;49.13
57594;BME280;43423;46.510;6.686;2023-04-09T07:19:20;96868.06;;;14.30;48.37
57594;BME280;43423;46.510;6.686;2023-04-09T07:21:46;96866.81;;;14.31;49.35
57594;BME280;43423;46.510;6.686;2023-04-09T07:24:11;96873.34;;;14.34;48.84
57594;BME280;43423;46.510;6.686;2023-04-09T07:26:37;96869.84;;;13.70;49.88
57594;BME280;43423;46.510;6.686;2023-04-09T07:29:02;96865.91;;;12.43;53.12
57594;BME280;43423;46.510;6.686;2023-04-09T07:31:28;96876.81;;;13.60;51.53
57594;BME280;43423;46.510;6.686;2023-04-09T07:33:54;96878.03;;;13.85;50.49
57594;BME280;43423;46.510;6.686;2023-04-09T07:36:20;96877.78;;;13.88;50.72
57594;BME280;43423;46.510;6.686;2023-04-09T07:38:45;96877.94;;;13.22;50.97
57594;BME280;43423;46.510;6.686;2023-04-09T07:41:11;96871.63;;;12.60;54.07
57594;BME280;43423;46.510;6.686;2023-04-09T07:43:37;96863.75;;;13.14;52.16
57594;BME280;43423;46.510;6.686;2023-04-09T07:46:02;96878.31;;;12.53;54.34
57594;BME280;43423;46.510;6.686;2023-04-09T07:48:28;96870.47;;;12.11;55.73
57594;BME280;43423;46.510;6.686;2023-04-09T07:50:54;96870.22;;;11.94;56.63
57594;BME280;43423;46.510;6.686;2023-04-09T07:53:19;96860.28;;;11.29;59.66
57594;BME280;43423;46.510;6.686;2023-04-09T07:55:45;96865.06;;;10.89;58.66
57594;BME280;43423;46.510;6.686;2023-04-09T07:58:11;96864.66;;;10.58;60.58
57594;BME280;43423;46.510;6.686;2023-04-09T08:00:36;96864.72;;;9.22;64.42
57594;BME280;43423;46.510;6.686;2023-04-09T08:03:02;96858.34;;;8.88;68.31
57594;BME280;43423;46.510;6.686;2023-04-09T08:05:28;96869.25;;;9.43;66.96
57594;BME280;43423;46.510;6.686;2023-04-09T08:07:55;96851.94;;;8.82;69.26
57594;BME280;43423;46.510;6.686;2023-04-09T08:10:20;96861.84;;;8.80;69.27
57594;BME280;43423;46.510;6.686;2023-04-09T08:12:47;96859.25;;;8.94;69.67
57594;BME280;43423;46.510;6.686;2023-04-09T08:15:12;96874.91;;;9.40;68.53
57594;BME280;43423;46.510;6.686;2023-04-09T08:17:38;96868.66;;;9.30;66.66
57594;BME280;43423;46.510;6.686;2023-04-09T08:20:04;96878.91;;;8.93;67.84
57594;BME280;43423;46.510;6.686;2023-04-09T08:22:30;96873.56;;;8.80;68.13
57594;BME280;43423;46.510;6.686;2023-04-09T08:24:56;96890.63;;;9.12;68.82
57594;BME280;43423;46.510;6.686;2023-04-09T08:27:24;96889.25;;;8.80;69.00
57594;BME280;43423;46.510;6.686;2023-04-09T08:29:50;96895.38;;;9.02;69.20
57594;BME280;43423;46.510;6.686;2023-04-09T08:32:16;96897.78;;;9.00;68.86
57594;BME280;43423;46.510;6.686;2023-04-09T08:34:41;96905.41;;;8.96;69.24
57594;BME280;43423;46.510;6.686;2023-04-09T08:37:07;96905.72;;;9.07;69.99
57594;BME280;43423;46.510;6.686;2023-04-09T08:39:32;96902.97;;;8.89;69.56
57594;BME280;43423;46.510;6.686;2023-04-09T08:41:59;96897.78;;;8.91;69.07
57594;BME280;43423;46.510;6.686;2023-04-09T08:44:28;96899.31;;;8.92;70.01
57594;BME280;43423;46.510;6.686;2023-04-09T08:46:54;96905.13;;;9.21;69.89
57594;BME280;43423;46.510;6.686;2023-04-09T08:49:19;96908.75;;;8.82;69.30
57594;BME280;43423;46.510;6.686;2023-04-09T08:51:46;96909.97;;;8.81;69.65
57594;BME280;43423;46.510;6.686;2023-04-09T08:54:17;96903.75;;;8.89;71.29
57594;BME280;43423;46.510;6.686;2023-04-09T08:56:47;96903.13;;;8.85;69.69
57594;BME280;43423;46.510;6.686;2023-04-09T08:59:16;96906.47;;;8.99;68.79
57594;BME280;43423;46.510;6.686;2023-04-09T09:01:45;96910.31;;;9.01;69.12
57594;BME280;43423;46.510;6.686;2023-04-09T09:04:13;96909.97;;;8.99;68.50
57594;BME280;43423;46.510;6.686;2023-04-09T09:06:40;96918.38;;;9.05;69.17
57594;BME280;43423;46.510;6.686;2023-04-09T09:09:14;96915.63;;;8.95;70.15
57594;BME280;43423;46.510;6.686;2023-04-09T09:11:45;96914.88;;;9.13;68.97
57594;BME280;43423;46.510;6.686;2023-04-09T09:14:16;96915.94;;;9.16;69.87
57594;BME280;43423;46.510;6.686;2023-04-09T09:21:57;96907.25;;;9.17;69.77
57594;BME280;43423;46.510;6.686;2023-04-09T09:24:23;96909.38;;;9.41;68.57
57594;BME280;43423;46.510;6.686;2023-04-09T09:26:51;96913.03;;;9.19;67.66
57594;BME280;43423;46.510;6.686;2023-04-09T09:29:16;96906.94;;;9.34;65.99
57594;BME280;43423;46.510;6.686;2023-04-09T09:31:46;96909.66;;;9.52;67.54
57594;BME280;43423;46.510;6.686;2023-04-09T09:34:14;96907.09;;;9.48;67.07
57594;BME280;43423;46.510;6.686;2023-04-09T09:36:40;96906.00;;;9.46;69.75
57594;BME280;43423;46.510;6.686;2023-04-09T09:39:05;96897.78;;;9.28;67.79
57594;BME280;43423;46.510;6.686;2023-04-09T09:41:43;96897.31;;;9.38;67.70
57594;BME280;43423;46.510;6.686;2023-04-09T09:44:09;96907.84;;;9.31;67.92
57594;BME280;43423;46.510;6.686;2023-04-09T09:46:37;96900.94;;;9.72;66.22
57594;BME280;43423;46.510;6.686;2023-04-09T09:49:04;96892.63;;;9.20;66.93
57594;BME280;43423;46.510;6.686;2023-04-09T09:51:31;96879.81;;;9.17;66.98
57594;BME280;43423;46.510;6.686;2023-04-09T09:53:58;96888.75;;;9.55;66.88
57594;BME280;43423;46.510;6.686;2023-04-09T09:56:29;96879.78;;;9.45;67.45
57594;BME280;43423;46.510;6.686;2023-04-09T09:59:15;96885.09;;;10.00;63.56
57594;BME280;43423;46.510;6.686;2023-04-09T10:01:44;96878.34;;;9.68;63.95
57594;BME280;43423;46.510;6.686;2023-04-09T10:04:13;96885.31;;;9.87;65.07
57594;BME280;43423;46.510;6.686;2023-04-09T10:06:42;96881.13;;;10.01;64.08
57594;BME280;43423;46.510;6.686;2023-04-09T10:09:08;96884.72;;;10.16;63.60
57594;BME280;43423;46.510;6.686;2023-04-09T10:11:35;96880.78;;;9.75;63.77
57594;BME280;43423;46.510;6.686;2023-04-09T10:14:02;96884.03;;;9.46;64.38
57594;BME280;43423;46.510;6.686;2023-04-09T10:16:28;96878.28;;;9.86;62.61
57594;BME280;43423;46.510;6.686;2023-04-09T10:18:55;96870.09;;;10.10;62.68
57594;BME280;43423;46.510;6.686;2023-04-09T10:24:03;96871.22;;;10.03;62.72
57594;BME280;43423;46.510;6.686;2023-04-09T10:26:34;96879.97;;;10.26;60.20
57594;BME280;43423;46.510;6.686;2023-04-09T10:29:11;96870.09;;;10.19;60.68
57594;BME280;43423;46.510;6.686;2023-04-09T10:31:47;96875.31;;;10.41;60.63
57594;BME280;43423;46.510;6.686;2023-04-09T10:34:16;96866.38;;;10.79;59.87
57594;BME280;43423;46.510;6.686;2023-04-09T10:36:45;96862.22;;;10.84;59.22
57594;BME280;43423;46.510;6.686;2023-04-09T10:39:13;96860.69;;;10.83;58.14
57594;BME280;43423;46.510;6.686;2023-04-09T10:41:40;96860.63;;;10.92;57.33
57594;BME280;43423;46.510;6.686;2023-04-09T10:44:22;96869.06;;;10.65;58.13
57594;BME280;43423;46.510;6.686;2023-04-09T10:46:48;96867.00;;;10.98;58.37
57594;BME280;43423;46.510;6.686;2023-04-09T10:49:18;96859.69;;;10.71;57.40
57594;BME280;43423;46.510;6.686;2023-04-09T10:51:50;96862.25;;;10.99;56.33
57594;BME280;43423;46.510;6.686;2023-04-09T10:57:19;96859.25;;;11.26;56.94
57594;BME280;43423;46.510;6.686;2023-04-09T10:59:53;96856.22;;;11.24;56.54
57594;BME280;43423;46.510;6.686;2023-04-09T11:08:03;96848.34;;;11.32;56.41
57594;BME280;43423;46.510;6.686;2023-04-09T11:10:30;96846.13;;;10.92;57.71
57594;BME280;43423;46.510;6.686;2023-04-09T11:12:56;96837.91;;;11.36;56.13
57594;BME280;43423;46.510;6.686;2023-04-09T11:15:22;96840.66;;;11.51;56.91
57594;BME280;43423;46.510;6.686;2023-04-09T11:17:48;96841.41;;;11.66;58.34
57594;BME280;43423;46.510;6.686;2023-04-09T11:20:16;96843.56;;;11.03;57.98
57594;BME280;43423;46.510;6.686;2023-04-09T11:22:41;96835.97;;;11.12;57.76
57594;BME280;43423;46.510;6.686;2023-04-09T11:25:07;96835.91;;;11.36;57.74
57594;BME280;43423;46.510;6.686;2023-04-09T11:27:37;96830.13;;;11.64;56.94
57594;BME280;43423;46.510;6.686;2023-04-09T11:30:03;96837.63;;;11.63;56.31
57594;BME280;43423;46.510;6.686;2023-04-09T11:32:30;96824.97;;;11.71;56.19
57594;BME280;43423;46.510;6.686;2023-04-09T11:34:55;96827.66;;;11.51;57.43
57594;BME280;43423;46.510;6.686;2023-04-09T11:37:22;96827.66;;;11.36;58.00
57594;BME280;43423;46.510;6.686;2023-04-09T11:39:48;96827.56;;;11.45;57.04
57594;BME280;43423;46.510;6.686;2023-04-09T11:42:16;96817.66;;;11.83;55.76
57594;BME280;43423;46.510;6.686;2023-04-09T11:44:43;96819.19;;;11.69;57.86
57594;BME280;43423;46.510;6.686;2023-04-09T11:47:09;96815.38;;;11.52;57.73
57594;BME280;43423;46.510;6.686;2023-04-09T11:49:36;96820.63;;;11.50;58.02
57594;BME280;43423;46.510;6.686;2023-04-09T11:52:02;96821.25;;;11.74;57.81
57594;BME280;43423;46.510;6.686;2023-04-09T11:54:35;96811.38;;;11.68;56.47
57594;BME280;43423;46.510;6.686;2023-04-09T11:57:04;96815.06;;;12.29;57.38
57594;BME280;43423;46.510;6.686;2023-04-09T11:59:29;96810.03;;;12.28;57.69
57594;BME280;43423;46.510;6.686;2023-04-09T12:01:59;96815.84;;;12.71;55.66
57594;BME280;43423;46.510;6.686;2023-04-09T12:04:24;96809.94;;;12.57;54.87
57594;BME280;43423;46.510;6.686;2023-04-09T12:06:54;96810.94;;;12.60;54.23
57594;BME280;43423;46.510;6.686;2023-04-09T12:09:20;96807.00;;;12.26;54.46
57594;BME280;43423;46.510;6.686;2023-04-09T12:11:46;96795.41;;;12.22;55.67
57594;BME280;43423;46.510;6.686;2023-04-09T12:14:13;96797.63;;;12.18;54.58
57594;BME280;43423;46.510;6.686;2023-04-09T12:16:39;96806.81;;;12.50;55.30
57594;BME280;43423;46.510;6.686;2023-04-09T12:19:13;96802.88;;;12.77;54.70
57594;BME280;43423;46.510;6.686;2023-04-09T12:21:48;96798.13;;;12.37;54.55
57594;BME280;43423;46.510;6.686;2023-04-09T12:24:18;96802.56;;;12.14;55.02
57594;BME280;43423;46.510;6.686;2023-04-09T12:26:44;96796.53;;;12.71;55.31
57594;BME280;43423;46.510;6.686;2023-04-09T12:29:12;96795.06;;;12.75;53.10
57594;BME280;43423;46.510;6.686;2023-04-09T12:31:38;96780.47;;;12.69;53.62
57594;BME280;43423;46.510;6.686;2023-04-09T12:34:03;96786.88;;;12.61;54.05
57594;BME280;43423;46.510;6.686;2023-04-09T12:36:29;96781.56;;;12.77;54.47
57594;BME280;43423;46.510;6.686;2023-04-09T12:38:54;96801.78;;;12.69;54.35
57594;BME280;43423;46.510;6.686;2023-04-09T12:41:21;96797.47;;;12.07;55.57
57594;BME280;43423;46.510;6.686;2023-04-09T12:43:46;96783.03;;;12.73;53.88
57594;BME280;43423;46.510;6.686;2023-04-09T12:46:12;96786.75;;;12.49;54.58
57594;BME280;43423;46.510;6.686;2023-04-09T12:48:38;96785.28;;;12.54;54.63
57594;BME280;43423;46.510;6.686;2023-04-09T12:51:04;96783.97;;;12.90;54.98
57594;BME280;43423;46.510;6.686;2023-04-09T12:53:30;96784.78;;;12.96;54.59
57594;BME280;43423;46.510;6.686;2023-04-09T12:55:56;96777.91;;;12.66;55.14
57594;BME280;43423;46.510;6.686;2023-04-09T12:58:21;96783.53;;;12.97;54.01
57594;BME280;43423;46.510;6.686;2023-04-09T13:00:47;96774.38;;;13.11;54.61
57594;BME280;43423;46.510;6.686;2023-04-09T13:03:13;96779.66;;;12.43;54.31
57594;BME280;43423;46.510;6.686;2023-04-09T13:05:41;96773.63;;;12.24;55.72
57594;BME280;43423;46.510;6.686;2023-04-09T13:08:07;96776.69;;;12.67;54.23
57594;BME280;43423;46.510;6.686;2023-04-09T13:10:32;96763.88;;;13.16;53.29
57594;BME280;43423;46.510;6.686;2023-04-09T13:12:58;96758.09;;;13.13;55.25
57594;BME280;43423;46.510;6.686;2023-04-09T13:15:24;96764.84;;;12.86;54.86
57594;BME280;43423;46.510;6.686;2023-04-09T13:17:49;96755.38;;;12.93;53.62
57594;BME280;43423;46.510;6.686;2023-04-09T13:20:15;96758.63;;;12.45;55.79
57594;BME280;43423;46.510;6.686;2023-04-09T13:22:40;96751.69;;;12.76;55.89
57594;BME280;43423;46.510;6.686;2023-04-09T13:25:06;96752.88;;;12.95;55.68
57594;BME280;43423;46.510;6.686;2023-04-09T13:27:32;96745.28;;;13.42;53.86
57594;BME280;43423;46.510;6.686;2023-04-09T13:29:57;96757.31;;;13.71;52.13
57594;BME280;43423;46.510;6.686;2023-04-09T13:32:23;96742.56;;;13.48;52.49